Arletta, Washington
Current Conditions -  °F | °C
As of 7:53 PM on Sunday 23 Nov 2014 (Local Time) from KTIW Reporting Station
Clear Clear  
Wind Chill:   Ceiling: Unl
Heat Index:   Visibility: 10mi
Dew Point:   Wind: 6mph
Humidity: 79%   Direction: 200°SSW
Pressure: 30.29"   Gusts: NA
Location:  47.2986°N, 122.616°W
Report Text: KTIW 240353Z 20005KT 10SM CLR 08/04 A3029 RMK AO2 SLP258 T00780044
Loading
Personal Weather Stations






























Interactive Weather Map New forecast layout! Learn more

10-Day Weather Forecast

Advertisements
Track Severe Weather on mobile